sensor_id;sensor_type;location;lat;lon;timestamp;pressure;altitude;pressure_sealevel;temperature;humidity
77702;BME280;66868;42.708;23.404;2024-01-10T00:01:14;96234.38;;;-2.63;75.54
77702;BME280;66868;42.708;23.404;2024-01-10T00:03:39;96236.94;;;-2.57;75.11
77702;BME280;66868;42.708;23.404;2024-01-10T00:06:05;96234.47;;;-2.54;75.48
77702;BME280;66868;42.708;23.404;2024-01-10T00:08:31;96240.34;;;-2.44;75.31
77702;BME280;66868;42.708;23.404;2024-01-10T00:10:57;96242.03;;;-2.42;75.26
77702;BME280;66868;42.708;23.404;2024-01-10T00:13:22;96235.50;;;-2.37;74.63
77702;BME280;66868;42.708;23.404;2024-01-10T00:15:48;96235.50;;;-2.34;75.02
77702;BME280;66868;42.708;23.404;2024-01-10T00:18:14;96245.47;;;-2.28;74.94
77702;BME280;66868;42.708;23.404;2024-01-10T00:20:40;96238.91;;;-2.22;74.77
77702;BME280;66868;42.708;23.404;2024-01-10T00:23:06;96207.34;;;-2.40;74.27
77702;BME280;66868;42.708;23.404;2024-01-10T00:25:32;96234.00;;;-2.16;74.39
77702;BME280;66868;42.708;23.404;2024-01-10T00:27:57;96249.78;;;-2.08;74.34
77702;BME280;66868;42.708;23.404;2024-01-10T00:30:23;96245.66;;;-2.06;73.41
77702;BME280;66868;42.708;23.404;2024-01-10T00:32:48;96217.44;;;-2.20;73.60
77702;BME280;66868;42.708;23.404;2024-01-10T00:35:14;96247.38;;;-1.99;73.56
77702;BME280;66868;42.708;23.404;2024-01-10T00:37:40;96232.44;;;-2.08;73.71
77702;BME280;66868;42.708;23.404;2024-01-10T00:40:05;96247.38;;;-1.99;73.89
77702;BME280;66868;42.708;23.404;2024-01-10T00:42:31;96249.00;;;-2.01;74.13
77702;BME280;66868;42.708;23.404;2024-01-10T00:44:57;96252.38;;;-1.96;74.21
77702;BME280;66868;42.708;23.404;2024-01-10T00:47:22;96248.25;;;-1.93;73.81
77702;BME280;66868;42.708;23.404;2024-01-10T00:49:47;96254.84;;;-1.93;73.93
77702;BME280;66868;42.708;23.404;2024-01-10T00:52:13;96235.00;;;-1.93;73.65
77702;BME280;66868;42.708;23.404;2024-01-10T00:54:38;96246.63;;;-1.91;73.20
77702;BME280;66868;42.708;23.404;2024-01-10T00:57:04;96252.41;;;-1.90;72.64
77702;BME280;66868;42.708;23.404;2024-01-10T00:59:29;96249.09;;;-1.92;72.67
77702;BME280;66868;42.708;23.404;2024-01-10T01:01:55;96253.25;;;-1.88;72.80
77702;BME280;66868;42.708;23.404;2024-01-10T01:04:20;96248.28;;;-1.88;72.90
77702;BME280;66868;42.708;23.404;2024-01-10T01:06:46;96254.88;;;-1.92;73.25
77702;BME280;66868;42.708;23.404;2024-01-10T01:09:11;96251.63;;;-1.85;72.19
77702;BME280;66868;42.708;23.404;2024-01-10T01:11:40;96245.84;;;-1.85;72.34
77702;BME280;66868;42.708;23.404;2024-01-10T01:14:06;96220.88;;;-2.03;72.13
77702;BME280;66868;42.708;23.404;2024-01-10T01:16:32;96244.19;;;-1.83;72.46
77702;BME280;66868;42.708;23.404;2024-01-10T01:18:57;96245.03;;;-1.83;73.12
77702;BME280;66868;42.708;23.404;2024-01-10T01:21:23;96236.72;;;-1.85;72.59
77702;BME280;66868;42.708;23.404;2024-01-10T01:23:48;96239.22;;;-1.86;72.87
77702;BME280;66868;42.708;23.404;2024-01-10T01:26:14;96235.94;;;-1.82;72.36
77702;BME280;66868;42.708;23.404;2024-01-10T01:28:40;96237.59;;;-1.81;71.88
77702;BME280;66868;42.708;23.404;2024-01-10T01:31:05;96239.25;;;-1.80;72.30
77702;BME280;66868;42.708;23.404;2024-01-10T01:33:31;96231.78;;;-1.83;72.31
77702;BME280;66868;42.708;23.404;2024-01-10T01:35:56;96233.41;;;-1.88;71.96
77702;BME280;66868;42.708;23.404;2024-01-10T01:38:22;96240.06;;;-1.83;71.76
77702;BME280;66868;42.708;23.404;2024-01-10T01:40:47;96234.25;;;-1.86;72.28
77702;BME280;66868;42.708;23.404;2024-01-10T01:43:23;96227.56;;;-1.96;72.20
77702;BME280;66868;42.708;23.404;2024-01-10T01:45:56;96239.06;;;-2.04;72.20
77702;BME280;66868;42.708;23.404;2024-01-10T01:48:22;96235.72;;;-2.08;71.99
77702;BME280;66868;42.708;23.404;2024-01-10T01:50:51;96227.31;;;-2.27;72.52
77702;BME280;66868;42.708;23.404;2024-01-10T01:53:17;96239.72;;;-2.24;72.72
77702;BME280;66868;42.708;23.404;2024-01-10T01:55:44;96230.53;;;-2.37;73.12
77702;BME280;66868;42.708;23.404;2024-01-10T01:58:11;96234.59;;;-2.43;73.24
77702;BME280;66868;42.708;23.404;2024-01-10T02:00:55;96222.13;;;-2.51;73.89
77702;BME280;66868;42.708;23.404;2024-01-10T02:03:21;96212.16;;;-2.57;73.61
77702;BME280;66868;42.708;23.404;2024-01-10T02:05:47;96217.03;;;-2.63;74.26
77702;BME280;66868;42.708;23.404;2024-01-10T02:08:13;96205.31;;;-2.79;73.81
77702;BME280;66868;42.708;23.404;2024-01-10T02:10:39;96212.72;;;-2.82;73.72
77702;BME280;66868;42.708;23.404;2024-01-10T02:13:05;96215.94;;;-2.89;74.39
77702;BME280;66868;42.708;23.404;2024-01-10T02:15:31;96206.88;;;-2.89;74.45
77702;BME280;66868;42.708;23.404;2024-01-10T02:17:57;96205.22;;;-2.88;74.05
77702;BME280;66868;42.708;23.404;2024-01-10T02:20:22;96203.63;;;-2.83;74.03
77702;BME280;66868;42.708;23.404;2024-01-10T02:22:48;96206.94;;;-2.81;74.31
77702;BME280;66868;42.708;23.404;2024-01-10T02:25:15;96172.84;;;-3.03;73.94
77702;BME280;66868;42.708;23.404;2024-01-10T02:27:41;96211.09;;;-2.77;73.77
77702;BME280;66868;42.708;23.404;2024-01-10T02:30:08;96206.09;;;-2.83;73.98
77702;BME280;66868;42.708;23.404;2024-01-10T02:32:34;96198.63;;;-2.86;73.53
77702;BME280;66868;42.708;23.404;2024-01-10T02:35:00;96193.72;;;-2.83;73.51
77702;BME280;66868;42.708;23.404;2024-01-10T02:37:26;96214.53;;;-2.69;73.20
77702;BME280;66868;42.708;23.404;2024-01-10T02:39:51;96217.84;;;-2.65;73.71
77702;BME280;66868;42.708;23.404;2024-01-10T02:42:17;96213.75;;;-2.62;73.92
77702;BME280;66868;42.708;23.404;2024-01-10T02:44:43;96217.91;;;-2.58;73.10
77702;BME280;66868;42.708;23.404;2024-01-10T02:47:09;96217.13;;;-2.54;72.71
77702;BME280;66868;42.708;23.404;2024-01-10T02:49:35;96217.97;;;-2.53;72.78
77702;BME280;66868;42.708;23.404;2024-01-10T02:52:01;96150.75;;;-2.85;73.02
77702;BME280;66868;42.708;23.404;2024-01-10T02:54:26;96214.69;;;-2.49;72.24
77702;BME280;66868;42.708;23.404;2024-01-10T02:56:52;96204.81;;;-2.46;72.79
77702;BME280;66868;42.708;23.404;2024-01-10T02:59:17;96188.22;;;-2.55;73.55
77702;BME280;66868;42.708;23.404;2024-01-10T03:01:43;96204.81;;;-2.46;73.01
77702;BME280;66868;42.708;23.404;2024-01-10T03:04:09;96212.31;;;-2.39;73.28
77702;BME280;66868;42.708;23.404;2024-01-10T03:06:34;96216.44;;;-2.41;73.18
77702;BME280;66868;42.708;23.404;2024-01-10T03:09:00;96209.81;;;-2.40;72.54
77702;BME280;66868;42.708;23.404;2024-01-10T03:11:25;96221.44;;;-2.36;73.88
77702;BME280;66868;42.708;23.404;2024-01-10T03:14:00;96202.31;;;-2.48;73.12
77702;BME280;66868;42.708;23.404;2024-01-10T03:16:25;96201.47;;;-2.51;72.62
77702;BME280;66868;42.708;23.404;2024-01-10T03:18:51;96210.63;;;-2.46;72.44
77702;BME280;66868;42.708;23.404;2024-01-10T03:21:17;96208.94;;;-2.50;72.84
77702;BME280;66868;42.708;23.404;2024-01-10T03:23:48;96211.47;;;-2.39;73.33
77702;BME280;66868;42.708;23.404;2024-01-10T03:26:13;96202.31;;;-2.48;73.57
77702;BME280;66868;42.708;23.404;2024-01-10T03:28:39;96220.63;;;-2.37;73.14
77702;BME280;66868;42.708;23.404;2024-01-10T03:31:04;96214.00;;;-2.35;74.00
77702;BME280;66868;42.708;23.404;2024-01-10T03:33:30;96216.50;;;-2.36;72.57
77702;BME280;66868;42.708;23.404;2024-01-10T03:35:55;96207.22;;;-2.54;72.32
77702;BME280;66868;42.708;23.404;2024-01-10T03:38:21;96225.50;;;-2.43;72.36
77702;BME280;66868;42.708;23.404;2024-01-10T03:40:46;96223.88;;;-2.41;72.08
77702;BME280;66868;42.708;23.404;2024-01-10T03:43:11;96216.41;;;-2.45;72.46
77702;BME280;66868;42.708;23.404;2024-01-10T03:45:37;96216.38;;;-2.50;72.53
77702;BME280;66868;42.708;23.404;2024-01-10T03:48:03;96220.47;;;-2.52;72.65
77702;BME280;66868;42.708;23.404;2024-01-10T03:50:29;96192.22;;;-2.69;72.75
77702;BME280;66868;42.708;23.404;2024-01-10T03:52:54;96206.28;;;-2.67;72.60
77702;BME280;66868;42.708;23.404;2024-01-10T03:55:20;96210.19;;;-2.88;72.95
77702;BME280;66868;42.708;23.404;2024-01-10T03:57:45;96227.53;;;-2.87;73.51
77702;BME280;66868;42.708;23.404;2024-01-10T04:00:11;96223.41;;;-2.88;72.36
77702;BME280;66868;42.708;23.404;2024-01-10T04:02:37;96206.69;;;-3.04;73.24
77702;BME280;66868;42.708;23.404;2024-01-10T04:05:09;96224.22;;;-2.89;73.04
77702;BME280;66868;42.708;23.404;2024-01-10T04:07:36;96229.16;;;-2.89;73.06
77702;BME280;66868;42.708;23.404;2024-01-10T04:10:02;96234.94;;;-2.91;73.14
77702;BME280;66868;42.708;23.404;2024-01-10T04:12:28;96229.78;;;-3.06;73.18
77702;BME280;66868;42.708;23.404;2024-01-10T04:14:54;96243.00;;;-3.04;73.03
77702;BME280;66868;42.708;23.404;2024-01-10T04:17:19;96241.31;;;-3.08;73.28
77702;BME280;66868;42.708;23.404;2024-01-10T04:19:45;96244.47;;;-3.19;73.22
77702;BME280;66868;42.708;23.404;2024-01-10T04:22:10;96237.78;;;-3.29;73.91
77702;BME280;66868;42.708;23.404;2024-01-10T04:24:35;96239.91;;;-3.53;75.12
77702;BME280;66868;42.708;23.404;2024-01-10T04:27:01;96243.69;;;-3.76;75.63
77702;BME280;66868;42.708;23.404;2024-01-10T04:29:26;96248.47;;;-3.88;76.76
77702;BME280;66868;42.708;23.404;2024-01-10T04:31:52;96245.13;;;-3.90;76.70
77702;BME280;66868;42.708;23.404;2024-01-10T04:34:17;96250.88;;;-3.91;77.02
77702;BME280;66868;42.708;23.404;2024-01-10T04:36:43;96250.19;;;-3.83;77.12
77702;BME280;66868;42.708;23.404;2024-01-10T04:39:09;96256.97;;;-3.70;76.53
77702;BME280;66868;42.708;23.404;2024-01-10T04:41:35;96256.94;;;-3.73;76.60
77702;BME280;66868;42.708;23.404;2024-01-10T04:44:00;96254.63;;;-3.62;75.75
77702;BME280;66868;42.708;23.404;2024-01-10T04:46:26;96262.09;;;-3.59;75.81
77702;BME280;66868;42.708;23.404;2024-01-10T04:48:51;96218.09;;;-3.80;75.60
77702;BME280;66868;42.708;23.404;2024-01-10T04:51:17;96249.59;;;-3.68;75.84
77702;BME280;66868;42.708;23.404;2024-01-10T04:53:43;96259.66;;;-3.56;74.82
77702;BME280;66868;42.708;23.404;2024-01-10T04:56:08;96244.00;;;-3.55;74.92
77702;BME280;66868;42.708;23.404;2024-01-10T04:58:34;96270.53;;;-3.45;75.74
77702;BME280;66868;42.708;23.404;2024-01-10T05:01:00;96268.16;;;-3.37;75.22
77702;BME280;66868;42.708;23.404;2024-01-10T05:03:25;96269.88;;;-3.32;74.93
77702;BME280;66868;42.708;23.404;2024-01-10T05:05:51;96263.13;;;-3.42;74.22
77702;BME280;66868;42.708;23.404;2024-01-10T05:08:17;96274.78;;;-3.36;74.62
77702;BME280;66868;42.708;23.404;2024-01-10T05:10:45;96259.88;;;-3.41;75.18
77702;BME280;66868;42.708;23.404;2024-01-10T05:13:12;96270.63;;;-3.39;75.39
77702;BME280;66868;42.708;23.404;2024-01-10T05:15:37;96269.81;;;-3.38;75.69
77702;BME280;66868;42.708;23.404;2024-01-10T05:18:03;96265.75;;;-3.33;75.62
77702;BME280;66868;42.708;23.404;2024-01-10T05:20:28;96237.25;;;-3.65;76.08
77702;BME280;66868;42.708;23.404;2024-01-10T05:22:54;96268.00;;;-3.49;75.98
77702;BME280;66868;42.708;23.404;2024-01-10T05:25:24;96278.88;;;-3.37;75.70
77702;BME280;66868;42.708;23.404;2024-01-10T05:27:49;96287.22;;;-3.32;75.66
77702;BME280;66868;42.708;23.404;2024-01-10T05:30:15;96278.94;;;-3.34;75.85
77702;BME280;66868;42.708;23.404;2024-01-10T05:32:40;96277.28;;;-3.35;75.57
77702;BME280;66868;42.708;23.404;2024-01-10T05:35:06;96268.88;;;-3.47;75.99
77702;BME280;66868;42.708;23.404;2024-01-10T05:37:31;96295.50;;;-3.30;75.74
77702;BME280;66868;42.708;23.404;2024-01-10T05:39:58;96295.63;;;-3.21;75.56
77702;BME280;66868;42.708;23.404;2024-01-10T05:42:24;96291.59;;;-3.13;75.44
77702;BME280;66868;42.708;23.404;2024-01-10T05:44:50;96272.44;;;-3.26;74.51
77702;BME280;66868;42.708;23.404;2024-01-10T05:47:15;96295.78;;;-3.10;74.29
77702;BME280;66868;42.708;23.404;2024-01-10T05:49:41;96291.63;;;-3.09;74.15
77702;BME280;66868;42.708;23.404;2024-01-10T05:52:07;96289.81;;;-3.23;73.33
77702;BME280;66868;42.708;23.404;2024-01-10T05:54:33;96290.69;;;-3.18;73.13
77702;BME280;66868;42.708;23.404;2024-01-10T05:56:58;96291.50;;;-3.20;72.23
77702;BME280;66868;42.708;23.404;2024-01-10T05:59:26;96298.84;;;-3.26;71.81
77702;BME280;66868;42.708;23.404;2024-01-10T06:01:52;96306.25;;;-3.28;70.89
77702;BME280;66868;42.708;23.404;2024-01-10T06:04:17;96308.59;;;-3.37;70.94
77702;BME280;66868;42.708;23.404;2024-01-10T06:06:43;96306.84;;;-3.44;71.15
77702;BME280;66868;42.708;23.404;2024-01-10T06:09:10;96316.31;;;-3.73;71.71
77702;BME280;66868;42.708;23.404;2024-01-10T06:11:45;96322.66;;;-3.88;72.55
77702;BME280;66868;42.708;23.404;2024-01-10T06:14:10;96313.34;;;-4.03;71.91
77702;BME280;66868;42.708;23.404;2024-01-10T06:16:36;96319.00;;;-4.09;71.57
77702;BME280;66868;42.708;23.404;2024-01-10T06:19:01;96328.69;;;-4.21;71.22
77702;BME280;66868;42.708;23.404;2024-01-10T06:21:27;96326.63;;;-4.43;71.32
77702;BME280;66868;42.708;23.404;2024-01-10T06:23:52;96324.97;;;-4.44;73.58
77702;BME280;66868;42.708;23.404;2024-01-10T06:26:18;96323.47;;;-4.36;74.55
77702;BME280;66868;42.708;23.404;2024-01-10T06:28:43;96319.88;;;-4.53;72.33
77702;BME280;66868;42.708;23.404;2024-01-10T06:31:09;96333.69;;;-4.61;72.33
77702;BME280;66868;42.708;23.404;2024-01-10T06:33:34;96340.34;;;-4.57;72.28
77702;BME280;66868;42.708;23.404;2024-01-10T06:36:00;96338.88;;;-4.49;71.93
77702;BME280;66868;42.708;23.404;2024-01-10T06:38:25;96339.38;;;-4.65;71.28
77702;BME280;66868;42.708;23.404;2024-01-10T06:40:51;96335.97;;;-4.70;71.57
77702;BME280;66868;42.708;23.404;2024-01-10T06:43:16;96347.84;;;-4.54;71.29
77702;BME280;66868;42.708;23.404;2024-01-10T06:45:42;96342.75;;;-4.60;71.17
77702;BME280;66868;42.708;23.404;2024-01-10T06:48:10;96346.28;;;-4.48;71.20
77702;BME280;66868;42.708;23.404;2024-01-10T06:50:36;96341.88;;;-4.64;71.09
77702;BME280;66868;42.708;23.404;2024-01-10T06:53:02;96344.31;;;-4.65;72.12
77702;BME280;66868;42.708;23.404;2024-01-10T06:55:28;96337.78;;;-4.62;71.98
77702;BME280;66868;42.708;23.404;2024-01-10T06:57:54;96349.47;;;-4.55;72.02
77702;BME280;66868;42.708;23.404;2024-01-10T07:00:21;96360.94;;;-4.58;72.75
77702;BME280;66868;42.708;23.404;2024-01-10T07:02:47;96358.47;;;-4.57;71.91
77702;BME280;66868;42.708;23.404;2024-01-10T07:05:14;96358.66;;;-4.48;71.13
77702;BME280;66868;42.708;23.404;2024-01-10T07:07:40;96357.97;;;-4.39;70.28
77702;BME280;66868;42.708;23.404;2024-01-10T07:10:06;96354.88;;;-4.29;70.93
77702;BME280;66868;42.708;23.404;2024-01-10T07:12:33;96348.22;;;-4.33;71.00
77702;BME280;66868;42.708;23.404;2024-01-10T07:14:59;96345.72;;;-4.34;71.03
77702;BME280;66868;42.708;23.404;2024-01-10T07:17:24;96366.78;;;-4.10;71.01
77702;BME280;66868;42.708;23.404;2024-01-10T07:19:50;96368.66;;;-3.96;70.28
77702;BME280;66868;42.708;23.404;2024-01-10T07:22:16;96368.88;;;-3.84;69.33
77702;BME280;66868;42.708;23.404;2024-01-10T07:24:43;96368.94;;;-3.81;69.06
77702;BME280;66868;42.708;23.404;2024-01-10T07:27:08;96362.31;;;-3.82;69.19
77702;BME280;66868;42.708;23.404;2024-01-10T07:29:34;96363.34;;;-3.70;68.95
77702;BME280;66868;42.708;23.404;2024-01-10T07:32:00;96358.31;;;-3.76;69.20
77702;BME280;66868;42.708;23.404;2024-01-10T07:34:25;96378.59;;;-3.45;68.42
77702;BME280;66868;42.708;23.404;2024-01-10T07:36:51;96378.66;;;-3.41;67.72
77702;BME280;66868;42.708;23.404;2024-01-10T07:39:17;96388.50;;;-3.44;67.59
77702;BME280;66868;42.708;23.404;2024-01-10T07:41:44;96361.66;;;-3.72;67.20
77702;BME280;66868;42.708;23.404;2024-01-10T07:44:09;96391.38;;;-3.71;67.60
77702;BME280;66868;42.708;23.404;2024-01-10T07:46:35;96397.16;;;-3.70;67.40
77702;BME280;66868;42.708;23.404;2024-01-10T07:49:03;96397.19;;;-3.67;66.59
77702;BME280;66868;42.708;23.404;2024-01-10T07:51:29;96393.22;;;-3.59;66.39
77702;BME280;66868;42.708;23.404;2024-01-10T07:53:55;96389.13;;;-3.57;66.79
77702;BME280;66868;42.708;23.404;2024-01-10T07:56:21;96390.78;;;-3.58;65.94
77702;BME280;66868;42.708;23.404;2024-01-10T07:58:47;96384.84;;;-3.67;64.84
77702;BME280;66868;42.708;23.404;2024-01-10T08:01:14;96399.78;;;-3.61;65.13
77702;BME280;66868;42.708;23.404;2024-01-10T08:03:39;96384.78;;;-3.69;64.54
77702;BME280;66868;42.708;23.404;2024-01-10T08:06:05;96401.19;;;-3.74;64.53
77702;BME280;66868;42.708;23.404;2024-01-10T08:08:31;96397.09;;;-3.75;64.23
77702;BME280;66868;42.708;23.404;2024-01-10T08:10:56;96399.34;;;-3.85;63.30
77702;BME280;66868;42.708;23.404;2024-01-10T08:13:22;96395.00;;;-3.98;64.04
77702;BME280;66868;42.708;23.404;2024-01-10T08:15:47;96372.53;;;-4.11;64.60
77702;BME280;66868;42.708;23.404;2024-01-10T08:18:13;96399.84;;;-4.05;64.68
77702;BME280;66868;42.708;23.404;2024-01-10T08:20:40;96405.78;;;-3.95;63.85
77702;BME280;66868;42.708;23.404;2024-01-10T08:23:05;96406.44;;;-4.04;64.16
77702;BME280;66868;42.708;23.404;2024-01-10T08:25:30;96390.09;;;-3.95;63.95
77702;BME280;66868;42.708;23.404;2024-01-10T08:27:56;96405.09;;;-3.86;64.04
77702;BME280;66868;42.708;23.404;2024-01-10T08:30:23;96411.94;;;-3.73;63.20
77702;BME280;66868;42.708;23.404;2024-01-10T08:32:49;96407.84;;;-3.71;62.69
77702;BME280;66868;42.708;23.404;2024-01-10T08:35:15;96405.34;;;-3.73;62.92
77702;BME280;66868;42.708;23.404;2024-01-10T08:37:41;96402.41;;;-3.52;64.08
77702;BME280;66868;42.708;23.404;2024-01-10T08:40:10;96399.09;;;-3.51;64.89
77702;BME280;66868;42.708;23.404;2024-01-10T08:42:46;96411.03;;;-3.29;64.11
77702;BME280;66868;42.708;23.404;2024-01-10T08:45:11;96412.63;;;-3.31;63.48
77702;BME280;66868;42.708;23.404;2024-01-10T08:47:37;96398.72;;;-3.23;62.41
77702;BME280;66868;42.708;23.404;2024-01-10T08:50:04;96412.81;;;-3.19;62.81
77702;BME280;66868;42.708;23.404;2024-01-10T08:52:36;96411.19;;;-3.20;63.13
77702;BME280;66868;42.708;23.404;2024-01-10T08:55:08;96373.03;;;-3.31;62.24
77702;BME280;66868;42.708;23.404;2024-01-10T08:57:33;96412.13;;;-3.12;60.94
77702;BME280;66868;42.708;23.404;2024-01-10T08:59:59;96401.16;;;-3.26;61.63
77702;BME280;66868;42.708;23.404;2024-01-10T09:02:25;96403.97;;;-3.04;61.46
77702;BME280;66868;42.708;23.404;2024-01-10T09:04:52;96399.59;;;-3.21;60.60
77702;BME280;66868;42.708;23.404;2024-01-10T09:07:18;96409.59;;;-3.15;61.38
77702;BME280;66868;42.708;23.404;2024-01-10T09:09:44;96394.69;;;-3.19;61.50
77702;BME280;66868;42.708;23.404;2024-01-10T09:12:10;96399.75;;;-3.12;61.55
77702;BME280;66868;42.708;23.404;2024-01-10T09:14:35;96410.56;;;-3.03;61.30
77702;BME280;66868;42.708;23.404;2024-01-10T09:17:01;96404.94;;;-2.93;61.24
77702;BME280;66868;42.708;23.404;2024-01-10T09:19:31;96396.91;;;-2.77;60.95
77702;BME280;66868;42.708;23.404;2024-01-10T09:21:57;96399.56;;;-2.63;60.53
77702;BME280;66868;42.708;23.404;2024-01-10T09:24:23;96373.09;;;-2.69;60.40
77702;BME280;66868;42.708;23.404;2024-01-10T09:26:51;96398.06;;;-2.52;60.28
77702;BME280;66868;42.708;23.404;2024-01-10T09:29:16;96387.44;;;-2.44;60.04
77702;BME280;66868;42.708;23.404;2024-01-10T09:31:42;96395.44;;;-2.64;59.91
77702;BME280;66868;42.708;23.404;2024-01-10T09:34:09;96393.06;;;-2.57;60.49
77702;BME280;66868;42.708;23.404;2024-01-10T09:36:34;96395.50;;;-2.60;61.14
77702;BME280;66868;42.708;23.404;2024-01-10T09:39:00;96389.81;;;-2.51;60.90
77702;BME280;66868;42.708;23.404;2024-01-10T09:41:28;96391.63;;;-2.38;60.94
77702;BME280;66868;42.708;23.404;2024-01-10T09:43:55;96382.56;;;-2.38;60.97
77702;BME280;66868;42.708;23.404;2024-01-10T09:46:21;96371.78;;;-2.40;60.57
77702;BME280;66868;42.708;23.404;2024-01-10T09:48:48;96365.25;;;-2.33;60.93
77702;BME280;66868;42.708;23.404;2024-01-10T09:51:14;96381.19;;;-2.11;60.76
77702;BME280;66868;42.708;23.404;2024-01-10T09:53:44;96362.97;;;-2.15;60.77
77702;BME280;66868;42.708;23.404;2024-01-10T09:56:10;96382.22;;;-1.94;60.72
77702;BME280;66868;42.708;23.404;2024-01-10T09:58:35;96346.47;;;-2.11;58.56
77702;BME280;66868;42.708;23.404;2024-01-10T10:01:05;96369.94;;;-1.79;60.24
77702;BME280;66868;42.708;23.404;2024-01-10T10:03:36;96367.50;;;-1.76;59.32
77702;BME280;66868;42.708;23.404;2024-01-10T10:06:03;96364.28;;;-1.64;59.81
77702;BME280;66868;42.708;23.404;2024-01-10T10:08:28;96343.66;;;-1.56;60.72
77702;BME280;66868;42.708;23.404;2024-01-10T10:10:54;96349.72;;;-1.22;61.18
77702;BME280;66868;42.708;23.404;2024-01-10T10:13:27;96358.97;;;-1.03;61.82
77702;BME280;66868;42.708;23.404;2024-01-10T10:16:03;96347.47;;;-0.84;61.71
77702;BME280;66868;42.708;23.404;2024-01-10T10:18:30;96349.19;;;-0.71;60.18
77702;BME280;66868;42.708;23.404;2024-01-10T10:21:10;96348.44;;;-0.61;60.06
77702;BME280;66868;42.708;23.404;2024-01-10T10:23:41;96330.16;;;-0.63;59.67
77702;BME280;66868;42.708;23.404;2024-01-10T10:26:26;96337.72;;;-0.40;60.79
77702;BME280;66868;42.708;23.404;2024-01-10T10:28:52;96336.09;;;-0.30;60.38
77702;BME280;66868;42.708;23.404;2024-01-10T10:31:19;96331.97;;;-0.13;59.26
77702;BME280;66868;42.708;23.404;2024-01-10T10:33:46;96323.72;;;-0.03;58.09
77702;BME280;66868;42.708;23.404;2024-01-10T10:36:14;96325.41;;;0.15;57.82
77702;BME280;66868;42.708;23.404;2024-01-10T10:38:39;96310.50;;;0.27;56.89
77702;BME280;66868;42.708;23.404;2024-01-10T10:41:06;96308.00;;;0.16;57.66
77702;BME280;66868;42.708;23.404;2024-01-10T10:43:37;96320.47;;;0.45;59.02
77702;BME280;66868;42.708;23.404;2024-01-10T10:46:09;96314.63;;;0.63;58.88
77702;BME280;66868;42.708;23.404;2024-01-10T10:48:37;96303.84;;;0.64;57.97
77702;BME280;66868;42.708;23.404;2024-01-10T10:51:09;96306.28;;;0.79;58.81
77702;BME280;66868;42.708;23.404;2024-01-10T10:53:35;96304.63;;;0.84;57.90
77702;BME280;66868;42.708;23.404;2024-01-10T10:56:05;96260.63;;;0.80;57.29
77702;BME280;66868;42.708;23.404;2024-01-10T10:58:40;96291.28;;;1.15;58.22
77702;BME280;66868;42.708;23.404;2024-01-10T11:01:06;96292.03;;;1.34;57.81
77702;BME280;66868;42.708;23.404;2024-01-10T11:03:37;96290.31;;;1.51;59.24
77702;BME280;66868;42.708;23.404;2024-01-10T11:06:05;96279.47;;;1.57;59.34
77702;BME280;66868;42.708;23.404;2024-01-10T11:08:45;96283.56;;;1.64;59.27
77702;BME280;66868;42.708;23.404;2024-01-10T11:11:41;96281.00;;;1.76;59.69
77702;BME280;66868;42.708;23.404;2024-01-10T11:20:16;96275.66;;;2.31;60.55
77702;BME280;66868;42.708;23.404;2024-01-10T11:25:18;96262.91;;;2.59;59.92
77702;BME280;66868;42.708;23.404;2024-01-10T11:27:44;96237.13;;;2.57;59.12
77702;BME280;66868;42.708;23.404;2024-01-10T11:30:12;96254.44;;;2.77;58.13
77702;BME280;66868;42.708;23.404;2024-01-10T11:32:38;96254.34;;;2.85;57.87
77702;BME280;66868;42.708;23.404;2024-01-10T11:35:19;96251.78;;;2.89;57.86
77702;BME280;66868;42.708;23.404;2024-01-10T11:37:45;96250.03;;;2.97;56.00
77702;BME280;66868;42.708;23.404;2024-01-10T11:40:13;96253.38;;;2.96;55.88
77702;BME280;66868;42.708;23.404;2024-01-10T11:42:45;96239.13;;;3.03;56.06
77702;BME280;66868;42.708;23.404;2024-01-10T11:47:56;96234.88;;;3.13;55.33
77702;BME280;66868;42.708;23.404;2024-01-10T11:50:23;96228.09;;;3.21;54.95
77702;BME280;66868;42.708;23.404;2024-01-10T11:52:53;96231.31;;;3.29;54.83
77702;BME280;66868;42.708;23.404;2024-01-10T11:55:50;96232.97;;;3.30;53.46
77702;BME280;66868;42.708;23.404;2024-01-10T11:58:19;96179.94;;;3.02;54.33
77702;BME280;66868;42.708;23.404;2024-01-10T12:00:46;96204.66;;;3.28;54.33
77702;BME280;66868;42.708;23.404;2024-01-10T12:03:11;96221.91;;;3.47;53.70
77702;BME280;66868;42.708;23.404;2024-01-10T12:05:38;96221.06;;;3.50;53.28
77702;BME280;66868;42.708;23.404;2024-01-10T12:08:07;96222.66;;;3.54;52.58
77702;BME280;66868;42.708;23.404;2024-01-10T12:10:33;96205.13;;;3.55;54.01
77702;BME280;66868;42.708;23.404;2024-01-10T12:13:03;96203.34;;;3.62;53.94
77702;BME280;66868;42.708;23.404;2024-01-10T12:15:29;96198.41;;;3.58;53.95
77702;BME280;66868;42.708;23.404;2024-01-10T12:17:55;96204.88;;;3.74;52.61
77702;BME280;66868;42.708;23.404;2024-01-10T12:20:20;96197.38;;;3.72;53.10
77702;BME280;66868;42.708;23.404;2024-01-10T12:22:46;96198.84;;;3.85;52.89
77702;BME280;66868;42.708;23.404;2024-01-10T12:25:11;96198.69;;;3.94;53.20
77702;BME280;66868;42.708;23.404;2024-01-10T12:27:37;96175.31;;;3.94;53.56
77702;BME280;66868;42.708;23.404;2024-01-10T12:30:02;96200.91;;;4.14;53.55
77702;BME280;66868;42.708;23.404;2024-01-10T12:32:31;96201.56;;;4.24;51.83
77702;BME280;66868;42.708;23.404;2024-01-10T12:35:01;96203.13;;;4.31;52.42
77702;BME280;66868;42.708;23.404;2024-01-10T12:37:27;96190.56;;;4.34;52.68
77702;BME280;66868;42.708;23.404;2024-01-10T12:39:52;96198.66;;;4.48;51.89
77702;BME280;66868;42.708;23.404;2024-01-10T12:42:18;96187.75;;;4.49;51.76
77702;BME280;66868;42.708;23.404;2024-01-10T12:44:44;96206.69;;;4.67;50.90
77702;BME280;66868;42.708;23.404;2024-01-10T12:47:18;96197.34;;;4.73;51.75
77702;BME280;66868;42.708;23.404;2024-01-10T12:49:45;96192.16;;;4.82;51.31
77702;BME280;66868;42.708;23.404;2024-01-10T12:52:12;96204.28;;;5.05;50.65
77702;BME280;66868;42.708;23.404;2024-01-10T12:54:38;96187.47;;;5.09;51.11
77702;BME280;66868;42.708;23.404;2024-01-10T12:57:04;96197.19;;;5.25;50.24
77702;BME280;66868;42.708;23.404;2024-01-10T12:59:30;96186.19;;;5.31;50.33
77702;BME280;66868;42.708;23.404;2024-01-10T13:01:55;96195.13;;;5.44;49.83